createdAt,value
2022-12-26T00:00:23.914Z,50.866741
2022-12-26T00:01:23.811Z,50.866749
2022-12-26T00:02:23.838Z,50.866722
2022-12-26T00:03:23.898Z,50.866718
2022-12-26T00:04:52.302Z,50.866726
2022-12-26T00:05:24.750Z,50.866726
2022-12-26T00:06:23.754Z,50.866737
2022-12-26T00:07:23.743Z,50.866707
2022-12-26T00:08:23.731Z,50.866703
2022-12-26T00:09:23.736Z,50.866734
2022-12-26T00:10:23.707Z,50.866688
2022-12-26T00:11:23.695Z,50.866642
2022-12-26T00:12:23.700Z,50.866684
2022-12-26T00:13:39.913Z,50.866638
2022-12-26T00:14:24.687Z,50.866642
2022-12-26T00:15:23.672Z,50.866581
2022-12-26T00:16:23.689Z,50.866653
2022-12-26T00:17:23.647Z,50.866737
2022-12-26T00:18:23.637Z,50.866734
2022-12-26T00:19:23.623Z,50.866665
2022-12-26T00:25:30.967Z,50.866703
2022-12-26T00:32:25.490Z,50.866634
2022-12-26T00:33:25.436Z,50.866486
2022-12-26T00:34:25.477Z,50.866470
2022-12-26T00:35:25.441Z,50.866570
2022-12-26T00:36:25.436Z,50.866669
2022-12-26T00:37:25.410Z,50.866653
2022-12-26T00:38:25.403Z,50.866604
2022-12-26T00:39:25.396Z,50.866653
2022-12-26T00:40:25.386Z,50.866611
2022-12-26T00:41:25.379Z,50.866638
2022-12-26T00:46:33.432Z,50.866795
2022-12-26T00:47:33.342Z,50.866634
2022-12-26T00:48:33.322Z,50.866669
2022-12-26T00:50:14.948Z,50.866650
2022-12-26T00:50:34.993Z,50.866699
2022-12-26T00:51:34.302Z,50.866688
2022-12-26T00:52:35.080Z,50.866615
2022-12-26T00:53:33.274Z,50.866589
2022-12-26T00:54:33.278Z,50.866634
2022-12-26T00:55:33.257Z,50.866623
2022-12-26T00:56:33.253Z,50.866665
2022-12-26T00:57:34.253Z,50.866676
2022-12-26T00:58:33.241Z,50.866669
2022-12-26T00:59:33.229Z,50.866680
2022-12-26T01:00:33.241Z,50.866688
2022-12-26T01:01:35.256Z,50.866680
2022-12-26T01:02:33.334Z,50.866756
2022-12-26T01:03:35.072Z,50.866684
2022-12-26T01:04:33.192Z,50.866638
2022-12-26T01:05:33.190Z,50.866665
2022-12-26T01:06:33.177Z,50.866688
2022-12-26T01:07:33.166Z,50.866680
2022-12-26T01:08:33.152Z,50.866646
2022-12-26T01:09:33.137Z,50.866695
2022-12-26T01:10:35.661Z,50.866692
2022-12-26T01:11:33.127Z,50.866657
2022-12-26T01:12:33.137Z,50.866638
2022-12-26T01:13:33.117Z,50.866615
2022-12-26T01:14:34.094Z,50.866650
2022-12-26T01:15:33.096Z,50.866570
2022-12-26T01:16:33.186Z,50.866669
2022-12-26T01:17:33.096Z,50.866661
2022-12-26T01:18:33.115Z,50.866703
2022-12-26T01:19:33.060Z,50.866684
2022-12-26T01:20:33.067Z,50.866665
2022-12-26T01:21:33.058Z,50.866688
2022-12-26T01:22:33.041Z,50.866570
2022-12-26T01:23:33.036Z,50.866646
2022-12-26T01:24:33.026Z,50.866699
2022-12-26T01:25:33.007Z,50.866684
2022-12-26T01:26:33.010Z,50.866638
2022-12-26T01:27:32.998Z,50.866753
2022-12-26T01:28:33.031Z,50.866810
2022-12-26T01:29:32.993Z,50.866791
2022-12-26T01:30:32.976Z,50.866783
2022-12-26T01:31:33.635Z,50.866737
2022-12-26T01:32:32.990Z,50.866741
2022-12-26T01:33:32.939Z,50.866768
2022-12-26T01:34:32.942Z,50.866779
2022-12-26T01:35:32.933Z,50.866768
2022-12-26T01:36:32.941Z,50.866699
2022-12-26T01:37:33.183Z,50.866722
2022-12-26T01:38:32.896Z,50.866798
2022-12-26T01:39:32.891Z,50.866749
2022-12-26T01:40:32.895Z,50.866817
2022-12-26T01:41:33.672Z,50.866802
2022-12-26T01:42:32.882Z,50.866703
2022-12-26T01:43:32.865Z,50.866631
2022-12-26T01:44:32.852Z,50.866688
2022-12-26T01:45:32.928Z,50.866707
2022-12-26T01:46:32.850Z,50.866776
2022-12-26T01:47:32.843Z,50.866756
2022-12-26T01:48:32.830Z,50.866817
2022-12-26T01:49:32.838Z,50.866920
2022-12-26T01:50:32.816Z,50.866871
2022-12-26T01:51:32.808Z,50.866829
2022-12-26T01:52:32.798Z,50.866714
2022-12-26T01:53:32.781Z,50.866833
2022-12-26T01:54:37.602Z,50.866924
2022-12-26T01:55:33.791Z,50.866783
2022-12-26T01:56:32.769Z,50.866894
2022-12-26T01:57:32.756Z,50.866909
2022-12-26T01:58:32.816Z,50.866737
2022-12-26T01:59:32.735Z,50.866695
2022-12-26T02:00:32.737Z,50.866806
2022-12-26T02:01:32.942Z,50.866825
2022-12-26T02:02:32.795Z,50.866798
2022-12-26T02:03:32.710Z,50.866760
2022-12-26T02:04:32.696Z,50.866737
2022-12-26T02:05:32.699Z,50.866852
2022-12-26T02:06:32.681Z,50.866791
2022-12-26T02:07:32.673Z,50.866863
2022-12-26T02:08:32.668Z,50.866882
2022-12-26T02:09:32.650Z,50.866829
2022-12-26T02:10:32.647Z,50.866871
2022-12-26T02:11:33.600Z,50.866852
2022-12-26T02:12:34.238Z,50.867001
2022-12-26T02:13:33.620Z,50.866955
2022-12-26T02:14:32.619Z,50.866951
2022-12-26T02:15:32.618Z,50.867355
2022-12-26T02:16:32.666Z,50.867500
2022-12-26T02:17:32.611Z,50.867149
2022-12-26T02:18:32.594Z,50.866932
2022-12-26T02:19:32.588Z,50.866856
2022-12-26T02:20:32.582Z,50.866936
2022-12-26T02:21:32.601Z,50.866821
2022-12-26T02:22:32.553Z,50.866783
2022-12-26T02:23:32.564Z,50.866760
2022-12-26T02:24:32.538Z,50.866863
2022-12-26T02:25:32.538Z,50.866913
2022-12-26T02:26:32.509Z,50.866783
2022-12-26T02:27:32.513Z,50.866756
2022-12-26T02:28:32.500Z,50.866798
2022-12-26T02:29:32.492Z,50.866867
2022-12-26T02:30:32.487Z,50.866970
2022-12-26T02:31:32.536Z,50.866989
2022-12-26T02:32:32.480Z,50.866863
2022-12-26T02:33:32.455Z,50.866917
2022-12-26T02:34:32.455Z,50.866917
2022-12-26T02:35:32.441Z,50.866905
2022-12-26T02:36:32.431Z,50.866886
2022-12-26T02:37:32.442Z,50.866924
2022-12-26T02:38:32.419Z,50.866955
2022-12-26T02:39:45.226Z,50.866943
2022-12-26T02:40:33.408Z,50.866856
2022-12-26T02:41:32.397Z,50.866730
2022-12-26T02:42:32.386Z,50.866825
2022-12-26T02:43:32.381Z,50.866844
2022-12-26T02:44:32.366Z,50.866802
2022-12-26T02:45:32.434Z,50.867050
2022-12-26T02:46:32.434Z,50.867035
2022-12-26T02:47:32.338Z,50.867012
2022-12-26T02:48:32.337Z,50.866970
2022-12-26T02:49:32.332Z,50.866932
2022-12-26T02:50:32.310Z,50.866886
2022-12-26T02:51:32.320Z,50.866871
2022-12-26T02:52:32.300Z,50.866776
2022-12-26T02:53:33.208Z,50.866978
2022-12-26T02:54:32.277Z,50.866924
2022-12-26T02:55:32.285Z,50.866909
2022-12-26T02:56:32.269Z,50.866886
2022-12-26T02:57:32.256Z,50.866913
2022-12-26T02:58:32.265Z,50.866798
2022-12-26T02:59:54.406Z,50.867046
2022-12-26T03:00:33.237Z,50.867031
2022-12-26T03:01:32.335Z,50.866947
2022-12-26T03:02:32.443Z,50.866863
2022-12-26T03:03:32.343Z,50.866741
2022-12-26T03:04:32.202Z,50.866707
2022-12-26T03:05:32.183Z,50.866756
2022-12-26T03:06:33.198Z,50.866898
2022-12-26T03:07:32.189Z,50.866844
2022-12-26T03:08:32.156Z,50.866879
2022-12-26T03:09:33.168Z,50.867027
2022-12-26T03:10:32.146Z,50.866993
2022-12-26T03:11:32.145Z,50.866974
2022-12-26T03:12:32.157Z,50.866875
2022-12-26T03:13:32.138Z,50.866886
2022-12-26T03:14:32.124Z,50.866928
2022-12-26T03:15:32.126Z,50.866749
2022-12-26T03:16:32.212Z,50.866844
2022-12-26T03:17:32.103Z,50.866936
2022-12-26T03:18:57.044Z,50.866985
2022-12-26T03:19:33.105Z,50.866940
2022-12-26T03:20:32.082Z,50.866798
2022-12-26T03:21:32.080Z,50.866909
2022-12-26T03:22:32.084Z,50.867100
2022-12-26T03:23:32.687Z,50.866989
2022-12-26T03:24:32.050Z,50.866642
2022-12-26T03:25:32.032Z,50.866859
2022-12-26T03:26:32.024Z,50.866909
2022-12-26T03:27:32.597Z,50.866917
2022-12-26T03:28:32.691Z,50.867081
2022-12-26T03:29:32.012Z,50.867134
2022-12-26T03:30:32.040Z,50.866928
2022-12-26T03:31:31.989Z,50.867119
2022-12-26T03:32:31.983Z,50.867321
2022-12-26T03:33:31.980Z,50.867176
2022-12-26T03:34:31.977Z,50.867188
2022-12-26T03:35:31.961Z,50.867039
2022-12-26T03:36:31.969Z,50.867031
2022-12-26T03:37:47.830Z,50.866901
2022-12-26T03:38:32.943Z,50.867126
2022-12-26T03:39:31.918Z,50.867188
2022-12-26T03:40:31.918Z,50.867252
2022-12-26T03:41:31.915Z,50.867390
2022-12-26T03:42:31.896Z,50.867500
2022-12-26T03:43:31.900Z,50.867371
2022-12-26T03:44:31.893Z,50.867363
2022-12-26T03:45:31.869Z,50.867348
2022-12-26T03:46:31.934Z,50.867409
2022-12-26T03:47:31.857Z,50.867268
2022-12-26T03:48:31.848Z,50.867203
2022-12-26T03:49:31.849Z,50.867264
2022-12-26T03:50:31.837Z,50.867054
2022-12-26T03:51:31.827Z,50.866943
2022-12-26T03:52:31.821Z,50.866852
2022-12-26T03:53:31.815Z,50.866920
2022-12-26T03:54:31.816Z,50.866997
2022-12-26T03:55:31.790Z,50.866974
2022-12-26T03:56:32.839Z,50.866978
2022-12-26T03:57:32.793Z,50.866982
2022-12-26T03:58:31.796Z,50.867195
2022-12-26T03:59:31.817Z,50.867104
2022-12-26T04:00:31.786Z,50.866997
2022-12-26T04:01:31.791Z,50.866665
2022-12-26T04:02:31.899Z,50.866634
2022-12-26T04:03:31.763Z,50.866714
2022-12-26T04:04:31.735Z,50.866779
2022-12-26T04:05:31.744Z,50.866760
2022-12-26T04:06:31.734Z,50.866718
2022-12-26T04:07:31.707Z,50.866665
2022-12-26T04:08:31.715Z,50.866642
2022-12-26T04:09:31.703Z,50.866653
2022-12-26T04:10:31.685Z,50.866673
2022-12-26T04:11:31.674Z,50.866676
2022-12-26T04:12:31.663Z,50.866714
2022-12-26T04:13:31.672Z,50.866749
2022-12-26T04:14:31.658Z,50.866802
2022-12-26T04:15:31.685Z,50.866814
2022-12-26T04:16:31.652Z,50.866718
2022-12-26T04:17:31.630Z,50.866768
2022-12-26T04:18:31.621Z,50.866924
2022-12-26T04:19:31.634Z,50.866947
2022-12-26T04:20:32.212Z,50.866898
2022-12-26T04:21:31.586Z,50.866749
2022-12-26T04:22:31.588Z,50.866879
2022-12-26T04:23:31.589Z,50.866779
2022-12-26T04:24:31.573Z,50.866901
2022-12-26T04:25:50.155Z,50.866714
2022-12-26T04:26:32.549Z,50.866650
2022-12-26T04:27:31.570Z,50.866642
2022-12-26T04:28:31.551Z,50.867046
2022-12-26T04:29:32.138Z,50.867058
2022-12-26T04:30:31.632Z,50.867085
2022-12-26T04:31:31.595Z,50.866959
2022-12-26T04:32:31.500Z,50.867184
2022-12-26T04:33:31.504Z,50.867130
2022-12-26T04:34:31.521Z,50.866848
2022-12-26T04:35:31.489Z,50.866810
2022-12-26T04:36:31.473Z,50.866764
2022-12-26T04:37:31.461Z,50.866806
2022-12-26T04:38:31.476Z,50.866791
2022-12-26T04:39:31.449Z,50.866802
2022-12-26T04:40:31.450Z,50.866837
2022-12-26T04:41:31.444Z,50.866802
2022-12-26T04:42:31.423Z,50.866772
2022-12-26T04:43:46.639Z,50.866730
2022-12-26T04:44:32.422Z,50.866566
2022-12-26T04:45:31.400Z,50.866528
2022-12-26T04:46:31.523Z,50.866535
2022-12-26T04:47:31.393Z,50.866703
2022-12-26T04:48:31.377Z,50.866764
2022-12-26T04:49:31.390Z,50.866695
2022-12-26T04:50:31.372Z,50.866741
2022-12-26T04:51:31.360Z,50.866875
2022-12-26T04:52:31.345Z,50.866848
2022-12-26T04:53:31.339Z,50.866882
2022-12-26T04:54:31.323Z,50.866802
2022-12-26T04:55:31.346Z,50.866886
2022-12-26T04:56:31.329Z,50.866848
2022-12-26T04:57:31.303Z,50.866730
2022-12-26T04:58:31.298Z,50.866737
2022-12-26T04:59:31.278Z,50.866673
2022-12-26T05:00:31.274Z,50.866680
2022-12-26T05:01:31.430Z,50.866768
2022-12-26T05:02:31.436Z,50.866753
2022-12-26T05:03:31.278Z,50.866764
2022-12-26T05:04:31.253Z,50.866665
2022-12-26T05:05:32.135Z,50.866684
2022-12-26T05:06:31.229Z,50.866676
2022-12-26T05:07:31.225Z,50.866707
2022-12-26T05:08:31.212Z,50.866600
2022-12-26T05:09:31.203Z,50.866718
2022-12-26T05:10:31.193Z,50.866753
2022-12-26T05:11:31.205Z,50.866741
2022-12-26T05:12:31.189Z,50.866806
2022-12-26T05:13:31.173Z,50.866814
2022-12-26T05:25:38.952Z,50.866245
2022-12-26T05:26:38.956Z,50.866268
2022-12-26T05:27:38.936Z,50.866390
2022-12-26T05:28:38.941Z,50.866539
2022-12-26T05:29:38.919Z,50.866520
2022-12-26T05:30:38.932Z,50.866482
2022-12-26T05:31:38.966Z,50.866421
2022-12-26T05:32:38.892Z,50.866459
2022-12-26T05:33:38.902Z,50.866432
2022-12-26T05:34:39.398Z,50.866501
2022-12-26T05:35:38.904Z,50.866539
2022-12-26T05:36:38.881Z,50.866459
2022-12-26T05:37:38.899Z,50.866470
2022-12-26T05:38:38.857Z,50.866493
2022-12-26T05:39:38.841Z,50.866497
2022-12-26T05:40:38.853Z,50.866528
2022-12-26T05:41:38.828Z,50.866550
2022-12-26T05:42:38.846Z,50.866512
2022-12-26T05:43:38.809Z,50.866543
2022-12-26T05:44:39.817Z,50.866470
2022-12-26T05:45:38.797Z,50.866470
2022-12-26T05:46:38.844Z,50.866421
2022-12-26T05:47:38.788Z,50.866405
2022-12-26T05:48:38.777Z,50.866482
2022-12-26T05:49:38.776Z,50.866470
2022-12-26T05:50:38.746Z,50.866482
2022-12-26T05:51:39.758Z,50.866474
2022-12-26T05:52:38.757Z,50.866489
2022-12-26T05:53:38.744Z,50.866589
2022-12-26T05:54:38.739Z,50.866566
2022-12-26T05:55:38.721Z,50.866482
2022-12-26T05:56:40.906Z,50.866474
2022-12-26T05:57:40.301Z,50.866497
2022-12-26T05:58:38.699Z,50.866634
2022-12-26T05:59:38.686Z,50.866825
2022-12-26T06:00:38.675Z,50.866940
2022-12-26T06:01:38.845Z,50.866856
2022-12-26T06:02:38.783Z,50.866596
2022-12-26T06:03:38.743Z,50.866627
2022-12-26T06:04:38.643Z,50.866600
2022-12-26T06:05:38.641Z,50.866558
2022-12-26T06:06:38.647Z,50.866615
2022-12-26T06:07:38.622Z,50.866608
2022-12-26T06:08:38.613Z,50.866592
2022-12-26T06:09:38.622Z,50.866608
2022-12-26T06:10:38.617Z,50.866619
2022-12-26T06:11:42.530Z,50.866619
2022-12-26T06:12:39.593Z,50.866619
2022-12-26T06:13:38.573Z,50.866592
2022-12-26T06:14:38.573Z,50.866680
2022-12-26T06:15:38.564Z,50.866722
2022-12-26T06:16:38.629Z,50.866695
2022-12-26T06:17:38.539Z,50.866730
2022-12-26T06:18:38.530Z,50.866646
2022-12-26T06:19:44.679Z,50.866653
2022-12-26T06:20:40.528Z,50.866608
2022-12-26T06:21:38.508Z,50.866631
2022-12-26T06:22:38.510Z,50.866615
2022-12-26T06:23:38.499Z,50.866657
2022-12-26T06:24:38.467Z,50.866657
2022-12-26T06:25:39.497Z,50.866653
2022-12-26T06:26:38.486Z,50.866680
2022-12-26T06:27:38.484Z,50.866665
2022-12-26T06:28:38.465Z,50.866650
2022-12-26T06:29:39.443Z,50.866646
2022-12-26T06:30:38.444Z,50.866627
2022-12-26T06:31:38.468Z,50.866669
2022-12-26T06:32:38.417Z,50.866608
2022-12-26T06:33:38.419Z,50.866631
2022-12-26T06:34:38.408Z,50.866646
2022-12-26T06:35:38.402Z,50.866665
2022-12-26T06:36:38.393Z,50.866619
2022-12-26T06:37:38.517Z,50.866646
2022-12-26T06:38:38.371Z,50.866676
2022-12-26T06:39:39.901Z,50.866669
2022-12-26T06:40:38.362Z,50.866669
2022-12-26T06:41:38.373Z,50.866688
2022-12-26T06:42:38.348Z,50.866684
2022-12-26T06:43:38.341Z,50.866684
2022-12-26T06:44:38.331Z,50.866714
2022-12-26T06:45:38.327Z,50.866703
2022-12-26T06:46:38.359Z,50.866688
2022-12-26T06:47:38.319Z,50.866730
2022-12-26T06:48:38.302Z,50.866714
2022-12-26T06:49:38.288Z,50.866707
2022-12-26T06:50:38.290Z,50.866673
2022-12-26T06:51:38.302Z,50.866711
2022-12-26T06:52:38.267Z,50.866798
2022-12-26T06:53:38.279Z,50.866791
2022-12-26T06:54:38.256Z,50.866753
2022-12-26T06:55:38.241Z,50.866680
2022-12-26T06:56:38.231Z,50.866661
2022-12-26T06:57:38.223Z,50.866642
2022-12-26T06:58:38.233Z,50.866653
2022-12-26T06:59:38.234Z,50.866646
2022-12-26T07:00:38.248Z,50.866699
2022-12-26T07:01:38.454Z,50.866718
2022-12-26T07:02:38.337Z,50.866711
2022-12-26T07:03:38.197Z,50.866695
2022-12-26T07:04:38.177Z,50.866714
2022-12-26T07:05:38.188Z,50.866722
2022-12-26T07:06:38.161Z,50.866657
2022-12-26T07:07:38.160Z,50.866661
2022-12-26T07:08:38.827Z,50.866627
2022-12-26T07:09:38.128Z,50.866570
2022-12-26T07:10:38.116Z,50.866615
2022-12-26T07:11:38.113Z,50.866608
2022-12-26T07:12:38.133Z,50.866661
2022-12-26T07:13:38.120Z,50.866688
2022-12-26T07:14:38.088Z,50.866634
2022-12-26T07:15:38.091Z,50.866619
2022-12-26T07:16:38.114Z,50.866688
2022-12-26T07:17:38.076Z,50.866741
2022-12-26T07:18:38.123Z,50.866726
2022-12-26T07:19:38.066Z,50.866669
2022-12-26T07:20:38.051Z,50.866753
2022-12-26T07:21:40.672Z,50.866787
2022-12-26T07:22:39.020Z,50.866802
2022-12-26T07:23:38.023Z,50.866802
2022-12-26T07:24:38.014Z,50.866833
2022-12-26T07:25:38.004Z,50.866768
2022-12-26T07:26:37.998Z,50.866463
2022-12-26T07:27:37.982Z,50.866695
2022-12-26T07:28:37.984Z,50.866802
2022-12-26T07:29:38.047Z,50.866882
2022-12-26T07:30:38.913Z,50.866936
2022-12-26T07:31:38.003Z,50.866795
2022-12-26T07:32:41.905Z,50.866432
2022-12-26T07:33:37.961Z,50.866577
2022-12-26T07:34:39.011Z,50.866562
2022-12-26T07:35:38.982Z,50.866531
2022-12-26T07:36:37.926Z,50.866615
2022-12-26T07:37:37.898Z,50.866653
2022-12-26T07:38:38.087Z,50.867008
2022-12-26T07:39:37.892Z,50.867142
2022-12-26T07:40:37.977Z,50.867054
2022-12-26T07:41:37.867Z,50.867081
2022-12-26T07:42:39.405Z,50.867214
2022-12-26T07:43:38.852Z,50.867050
2022-12-26T07:44:37.931Z,50.867035
2022-12-26T07:45:45.042Z,50.867054
2022-12-26T07:46:39.995Z,50.866982
2022-12-26T07:47:37.828Z,50.866993
2022-12-26T07:48:37.821Z,50.866821
2022-12-26T07:49:37.830Z,50.866890
2022-12-26T07:50:37.803Z,50.866924
2022-12-26T07:51:37.792Z,50.866959
2022-12-26T07:52:37.844Z,50.866924
2022-12-26T07:53:37.786Z,50.866947
2022-12-26T07:54:37.773Z,50.866913
2022-12-26T07:55:37.769Z,50.866837
2022-12-26T07:56:37.752Z,50.866886
2022-12-26T07:57:48.764Z,50.866970
2022-12-26T07:58:39.734Z,50.866951
2022-12-26T07:59:37.726Z,50.866863
2022-12-26T08:00:38.340Z,50.866898
2022-12-26T08:01:37.789Z,50.866829
2022-12-26T08:02:39.090Z,50.866833
2022-12-26T08:03:37.771Z,50.866932
2022-12-26T08:04:37.691Z,50.866844
2022-12-26T08:05:37.681Z,50.866890
2022-12-26T08:06:37.666Z,50.866844
2022-12-26T08:07:37.671Z,50.866898
2022-12-26T08:08:42.897Z,50.866917
2022-12-26T08:09:38.658Z,50.866886
2022-12-26T08:10:39.413Z,50.866856
2022-12-26T08:11:37.657Z,50.866814
2022-12-26T08:12:37.617Z,50.866806
2022-12-26T08:13:37.610Z,50.866890
2022-12-26T08:14:37.616Z,50.866875
2022-12-26T08:15:37.601Z,50.866947
2022-12-26T08:16:37.633Z,50.866943
2022-12-26T08:17:37.633Z,50.866837
2022-12-26T08:18:37.588Z,50.866882
2022-12-26T08:19:37.557Z,50.866875
2022-12-26T08:20:37.555Z,50.866943
2022-12-26T08:21:37.551Z,50.866959
2022-12-26T08:22:37.536Z,50.866913
2022-12-26T08:23:37.532Z,50.866909
2022-12-26T08:24:37.531Z,50.866901
2022-12-26T08:25:37.513Z,50.866840
2022-12-26T08:26:37.516Z,50.866821
2022-12-26T08:27:37.544Z,50.866829
2022-12-26T08:28:37.510Z,50.866829
2022-12-26T08:29:37.481Z,50.866856
2022-12-26T08:30:37.488Z,50.866867
2022-12-26T08:31:37.489Z,50.866863
2022-12-26T08:32:39.533Z,50.866890
2022-12-26T08:33:38.461Z,50.866856
2022-12-26T08:34:41.394Z,50.866886
2022-12-26T08:35:37.446Z,50.866852
2022-12-26T08:36:37.421Z,50.866844
2022-12-26T08:37:38.439Z,50.866829
2022-12-26T08:38:37.437Z,50.866875
2022-12-26T08:39:37.411Z,50.866894
2022-12-26T08:40:44.620Z,50.866859
2022-12-26T08:41:39.399Z,50.866867
2022-12-26T08:42:44.774Z,50.866863
2022-12-26T08:44:24.411Z,50.866837
2022-12-26T08:44:39.373Z,50.866859
2022-12-26T08:45:37.382Z,50.866886
2022-12-26T08:46:37.366Z,50.866871
2022-12-26T08:47:37.350Z,50.866871
2022-12-26T08:48:37.334Z,50.866898
2022-12-26T08:49:37.334Z,50.866943
2022-12-26T08:50:40.988Z,50.866821
2022-12-26T08:51:38.342Z,50.866833
2022-12-26T08:52:37.855Z,50.866848
2022-12-26T08:53:37.313Z,50.866917
2022-12-26T08:54:37.286Z,50.866848
2022-12-26T08:55:37.296Z,50.866852
2022-12-26T08:56:37.280Z,50.866875
2022-12-26T08:57:37.266Z,50.866928
2022-12-26T08:58:37.299Z,50.866920
2022-12-26T08:59:37.244Z,50.866940
2022-12-26T09:00:37.244Z,50.866871
2022-12-26T09:01:37.398Z,50.866890
2022-12-26T09:02:37.494Z,50.866890
2022-12-26T09:03:37.219Z,50.866920
2022-12-26T09:04:37.202Z,50.866932
2022-12-26T09:05:37.201Z,50.866913
2022-12-26T09:06:37.212Z,50.867046
2022-12-26T09:07:37.179Z,50.867035
2022-12-26T09:08:37.230Z,50.866966
2022-12-26T09:09:37.155Z,50.866901
2022-12-26T09:10:37.167Z,50.866898
2022-12-26T09:11:37.152Z,50.866882
2022-12-26T09:12:37.157Z,50.866901
2022-12-26T09:13:37.135Z,50.866955
2022-12-26T09:14:37.122Z,50.866837
2022-12-26T09:15:37.123Z,50.866859
2022-12-26T09:16:40.811Z,50.866833
2022-12-26T09:17:39.115Z,50.866833
2022-12-26T09:18:37.097Z,50.866798
2022-12-26T09:19:37.106Z,50.866711
2022-12-26T09:20:37.085Z,50.866711
2022-12-26T09:21:37.863Z,50.866718
2022-12-26T09:22:37.073Z,50.866722
2022-12-26T09:23:37.065Z,50.866631
2022-12-26T09:24:37.056Z,50.866714
2022-12-26T09:25:37.065Z,50.866814
2022-12-26T09:26:37.092Z,50.866718
2022-12-26T09:27:37.033Z,50.866669
2022-12-26T09:28:37.023Z,50.866749
2022-12-26T09:29:37.937Z,50.866760
2022-12-26T09:30:37.072Z,50.866726
2022-12-26T09:31:37.002Z,50.866760
2022-12-26T09:32:37.992Z,50.866768
2022-12-26T09:33:36.987Z,50.866756
2022-12-26T09:34:36.994Z,50.866749
2022-12-26T09:35:36.971Z,50.866756
2022-12-26T09:36:37.018Z,50.866749
2022-12-26T09:37:36.961Z,50.866764
2022-12-26T09:38:36.948Z,50.866787
2022-12-26T09:39:36.943Z,50.866768
2022-12-26T09:40:36.934Z,50.866783
2022-12-26T09:41:36.933Z,50.866776
2022-12-26T09:42:36.925Z,50.866795
2022-12-26T09:43:37.443Z,50.866814
2022-12-26T09:44:36.889Z,50.866772
2022-12-26T09:45:36.885Z,50.866730
2022-12-26T09:46:37.022Z,50.866806
2022-12-26T09:47:36.876Z,50.866821
2022-12-26T09:48:36.859Z,50.866760
2022-12-26T09:49:36.872Z,50.866753
2022-12-26T09:50:42.683Z,50.866726
2022-12-26T09:51:39.364Z,50.866734
2022-12-26T09:52:36.844Z,50.866711
2022-12-26T09:53:36.825Z,50.866669
2022-12-26T09:54:36.819Z,50.866661
2022-12-26T09:55:36.808Z,50.866722
2022-12-26T09:57:01.934Z,50.866795
2022-12-26T09:57:38.793Z,50.866730
2022-12-26T09:58:36.786Z,50.866764
2022-12-26T09:59:36.778Z,50.866844
2022-12-26T10:00:36.778Z,50.866825
2022-12-26T10:01:36.899Z,50.866734
2022-12-26T10:02:36.763Z,50.866806
2022-12-26T10:03:36.743Z,50.866829
2022-12-26T10:04:36.750Z,50.866768
2022-12-26T10:05:36.733Z,50.866764
2022-12-26T10:06:36.724Z,50.866890
2022-12-26T10:07:36.701Z,50.866951
2022-12-26T10:08:36.707Z,50.867199
2022-12-26T10:09:36.698Z,50.866959
2022-12-26T10:10:36.690Z,50.867195
2022-12-26T10:11:36.680Z,50.867191
2022-12-26T10:12:36.703Z,50.867065
2022-12-26T10:13:36.667Z,50.866947
2022-12-26T10:14:36.697Z,50.867012
2022-12-26T10:15:36.687Z,50.867008
2022-12-26T10:16:37.405Z,50.867031
2022-12-26T10:17:36.639Z,50.866959
2022-12-26T10:18:36.612Z,50.866966
2022-12-26T10:19:36.625Z,50.866737
2022-12-26T10:20:36.607Z,50.866821
2022-12-26T10:21:36.595Z,50.866924
2022-12-26T10:22:36.580Z,50.866901
2022-12-26T10:23:36.582Z,50.867100
2022-12-26T10:24:36.561Z,50.867054
2022-12-26T10:25:36.563Z,50.867035
2022-12-26T10:26:36.547Z,50.866920
2022-12-26T10:27:38.377Z,50.866932
2022-12-26T10:28:36.549Z,50.866928
2022-12-26T10:29:36.546Z,50.866928
2022-12-26T10:30:36.519Z,50.866955
2022-12-26T10:31:36.523Z,50.866917
2022-12-26T10:32:36.511Z,50.867016
2022-12-26T10:33:36.502Z,50.866924
2022-12-26T10:34:36.504Z,50.866848
2022-12-26T10:35:36.488Z,50.867035
2022-12-26T10:36:36.476Z,50.866959
2022-12-26T10:37:36.464Z,50.866890
2022-12-26T10:38:38.976Z,50.867004
2022-12-26T10:39:36.462Z,50.867012
2022-12-26T10:40:36.437Z,50.867012
2022-12-26T10:41:36.462Z,50.866966
2022-12-26T10:42:37.383Z,50.866768
2022-12-26T10:43:36.417Z,50.866970
2022-12-26T10:44:36.409Z,50.866905
2022-12-26T10:45:36.413Z,50.867023
2022-12-26T10:46:36.511Z,50.866852
2022-12-26T10:47:37.990Z,50.866768
2022-12-26T10:48:36.377Z,50.866848
2022-12-26T10:49:36.374Z,50.866917
2022-12-26T10:50:37.894Z,50.866898
2022-12-26T10:51:36.358Z,50.866833
2022-12-26T10:52:36.347Z,50.866699
2022-12-26T10:53:36.341Z,50.866737
2022-12-26T10:54:36.346Z,50.866718
2022-12-26T10:55:36.337Z,50.866798
2022-12-26T10:56:36.323Z,50.866833
2022-12-26T10:57:36.314Z,50.866745
2022-12-26T10:58:36.312Z,50.866669
2022-12-26T10:59:36.355Z,50.866726
2022-12-26T11:00:36.282Z,50.866783
2022-12-26T11:01:36.456Z,50.866844
2022-12-26T11:02:37.508Z,50.866886
2022-12-26T11:03:39.056Z,50.866894
2022-12-26T11:06:09.579Z,50.866882
2022-12-26T11:06:38.243Z,50.866825
2022-12-26T11:07:36.233Z,50.866951
2022-12-26T11:08:40.849Z,50.866993
2022-12-26T11:09:38.947Z,50.866879
2022-12-26T11:10:37.974Z,50.866749
2022-12-26T11:11:36.206Z,50.866802
2022-12-26T11:12:36.191Z,50.866779
2022-12-26T11:13:36.969Z,50.866753
2022-12-26T11:14:36.207Z,50.866776
2022-12-26T11:15:36.302Z,50.866772
2022-12-26T11:16:36.161Z,50.866760
2022-12-26T11:17:36.149Z,50.866734
2022-12-26T11:18:36.155Z,50.866817
2022-12-26T11:19:36.138Z,50.866844
2022-12-26T11:20:36.122Z,50.866768
2022-12-26T11:21:36.106Z,50.866764
2022-12-26T11:22:37.131Z,50.866703
2022-12-26T11:23:36.107Z,50.866695
2022-12-26T11:24:36.103Z,50.866844
2022-12-26T11:25:36.078Z,50.866756
2022-12-26T11:26:36.077Z,50.866714
2022-12-26T11:27:36.059Z,50.866722
2022-12-26T11:28:37.003Z,50.866707
2022-12-26T11:35:49.910Z,50.866768
2022-12-26T11:36:48.755Z,50.866573
2022-12-26T11:37:43.939Z,50.866749
2022-12-26T11:44:58.571Z,50.866749
2022-12-26T11:45:56.750Z,50.866680
2022-12-26T11:46:57.796Z,50.866646
2022-12-26T11:47:56.772Z,50.866753
2022-12-26T11:48:56.742Z,50.866760
2022-12-26T11:49:56.732Z,50.866772
2022-12-26T11:50:56.724Z,50.866760
2022-12-26T11:51:59.600Z,50.866768
2022-12-26T11:52:57.717Z,50.866749
2022-12-26T11:57:05.726Z,50.866756
2022-12-26T11:58:05.714Z,50.866756
2022-12-26T11:59:05.701Z,50.866745
2022-12-26T12:00:15.349Z,50.866760
2022-12-26T12:01:05.944Z,50.866779
2022-12-26T12:02:05.757Z,50.866741
2022-12-26T12:03:05.711Z,50.866756
2022-12-26T12:04:05.697Z,50.866760
2022-12-26T12:05:09.351Z,50.866772
2022-12-26T12:06:05.662Z,50.866684
2022-12-26T12:07:05.650Z,50.866661